sensor_id;sensor_type;location;lat;lon;timestamp;P1;durP1;ratioP1;P2;durP2;ratioP2
74371;SDS011;62885;51.374;6.170;2023-07-09T00:01:41;10.15;;;5.90;;
74371;SDS011;62885;51.374;6.170;2023-07-09T00:04:08;13.45;;;4.97;;
74371;SDS011;62885;51.374;6.170;2023-07-09T00:06:35;11.18;;;5.65;;
74371;SDS011;62885;51.374;6.170;2023-07-09T00:09:01;11.27;;;5.47;;
74371;SDS011;62885;51.374;6.170;2023-07-09T00:11:26;9.13;;;4.70;;
74371;SDS011;62885;51.374;6.170;2023-07-09T00:13:52;10.40;;;4.68;;
74371;SDS011;62885;51.374;6.170;2023-07-09T00:16:21;13.30;;;5.57;;
74371;SDS011;62885;51.374;6.170;2023-07-09T00:18:49;10.75;;;5.15;;
74371;SDS011;62885;51.374;6.170;2023-07-09T00:21:18;13.57;;;4.60;;
74371;SDS011;62885;51.374;6.170;2023-07-09T00:23:45;8.15;;;4.35;;
74371;SDS011;62885;51.374;6.170;2023-07-09T00:26:13;11.23;;;5.63;;
74371;SDS011;62885;51.374;6.170;2023-07-09T00:28:40;8.80;;;4.38;;
74371;SDS011;62885;51.374;6.170;2023-07-09T00:31:13;10.98;;;5.05;;
74371;SDS011;62885;51.374;6.170;2023-07-09T00:33:40;11.00;;;5.07;;
74371;SDS011;62885;51.374;6.170;2023-07-09T00:36:11;11.82;;;5.95;;
74371;SDS011;62885;51.374;6.170;2023-07-09T00:38:40;13.05;;;4.78;;
74371;SDS011;62885;51.374;6.170;2023-07-09T00:41:08;13.13;;;5.70;;
74371;SDS011;62885;51.374;6.170;2023-07-09T00:43:42;11.00;;;5.53;;
74371;SDS011;62885;51.374;6.170;2023-07-09T00:48:53;10.25;;;5.00;;
74371;SDS011;62885;51.374;6.170;2023-07-09T00:51:24;11.98;;;5.35;;
74371;SDS011;62885;51.374;6.170;2023-07-09T00:53:54;9.13;;;4.65;;
74371;SDS011;62885;51.374;6.170;2023-07-09T00:56:29;10.32;;;5.28;;
74371;SDS011;62885;51.374;6.170;2023-07-09T00:58:58;12.68;;;5.03;;
74371;SDS011;62885;51.374;6.170;2023-07-09T01:01:29;11.40;;;6.30;;
74371;SDS011;62885;51.374;6.170;2023-07-09T01:03:55;13.32;;;5.75;;
74371;SDS011;62885;51.374;6.170;2023-07-09T01:06:28;11.18;;;5.18;;
74371;SDS011;62885;51.374;6.170;2023-07-09T01:08:57;11.88;;;5.38;;
74371;SDS011;62885;51.374;6.170;2023-07-09T01:11:25;9.40;;;4.38;;
74371;SDS011;62885;51.374;6.170;2023-07-09T01:13:52;9.02;;;5.13;;
74371;SDS011;62885;51.374;6.170;2023-07-09T01:16:21;11.80;;;5.38;;
74371;SDS011;62885;51.374;6.170;2023-07-09T01:18:50;10.60;;;4.85;;
74371;SDS011;62885;51.374;6.170;2023-07-09T01:21:16;13.43;;;5.25;;
74371;SDS011;62885;51.374;6.170;2023-07-09T01:23:43;12.38;;;5.35;;
74371;SDS011;62885;51.374;6.170;2023-07-09T01:26:12;11.02;;;5.88;;
74371;SDS011;62885;51.374;6.170;2023-07-09T01:28:39;10.90;;;5.63;;
74371;SDS011;62885;51.374;6.170;2023-07-09T01:31:08;10.82;;;5.15;;
74371;SDS011;62885;51.374;6.170;2023-07-09T01:33:34;9.43;;;4.90;;
74371;SDS011;62885;51.374;6.170;2023-07-09T01:36:00;10.10;;;4.47;;
74371;SDS011;62885;51.374;6.170;2023-07-09T01:38:28;16.25;;;7.38;;
74371;SDS011;62885;51.374;6.170;2023-07-09T01:40:57;15.13;;;6.88;;
74371;SDS011;62885;51.374;6.170;2023-07-09T01:43:23;13.05;;;6.22;;
74371;SDS011;62885;51.374;6.170;2023-07-09T01:45:50;9.82;;;5.30;;
74371;SDS011;62885;51.374;6.170;2023-07-09T01:48:16;9.98;;;4.78;;
74371;SDS011;62885;51.374;6.170;2023-07-09T01:50:45;10.88;;;5.13;;
74371;SDS011;62885;51.374;6.170;2023-07-09T01:53:15;11.95;;;4.75;;
74371;SDS011;62885;51.374;6.170;2023-07-09T01:55:43;16.90;;;6.28;;
74371;SDS011;62885;51.374;6.170;2023-07-09T01:58:09;10.25;;;5.13;;
74371;SDS011;62885;51.374;6.170;2023-07-09T02:00:36;8.52;;;4.43;;
74371;SDS011;62885;51.374;6.170;2023-07-09T02:03:02;11.45;;;5.63;;
74371;SDS011;62885;51.374;6.170;2023-07-09T02:05:29;10.70;;;5.10;;
74371;SDS011;62885;51.374;6.170;2023-07-09T02:07:56;11.23;;;5.15;;
74371;SDS011;62885;51.374;6.170;2023-07-09T02:10:22;11.50;;;5.05;;
74371;SDS011;62885;51.374;6.170;2023-07-09T02:12:47;9.63;;;5.07;;
74371;SDS011;62885;51.374;6.170;2023-07-09T02:15:13;15.55;;;4.93;;
74371;SDS011;62885;51.374;6.170;2023-07-09T02:17:39;9.25;;;4.40;;
74371;SDS011;62885;51.374;6.170;2023-07-09T02:20:05;9.45;;;4.57;;
74371;SDS011;62885;51.374;6.170;2023-07-09T02:22:32;11.38;;;4.35;;
74371;SDS011;62885;51.374;6.170;2023-07-09T02:25:01;8.45;;;4.57;;
74371;SDS011;62885;51.374;6.170;2023-07-09T02:27:26;12.80;;;5.07;;
74371;SDS011;62885;51.374;6.170;2023-07-09T02:29:53;11.93;;;4.90;;
74371;SDS011;62885;51.374;6.170;2023-07-09T02:32:20;10.88;;;5.10;;
74371;SDS011;62885;51.374;6.170;2023-07-09T02:34:54;11.77;;;4.82;;
74371;SDS011;62885;51.374;6.170;2023-07-09T02:37:20;11.27;;;4.70;;
74371;SDS011;62885;51.374;6.170;2023-07-09T02:39:48;11.35;;;5.07;;
74371;SDS011;62885;51.374;6.170;2023-07-09T02:42:14;9.70;;;4.90;;
74371;SDS011;62885;51.374;6.170;2023-07-09T02:44:42;13.88;;;5.65;;
74371;SDS011;62885;51.374;6.170;2023-07-09T02:47:09;10.68;;;4.95;;
74371;SDS011;62885;51.374;6.170;2023-07-09T02:49:35;12.32;;;5.28;;
74371;SDS011;62885;51.374;6.170;2023-07-09T02:52:01;11.90;;;5.00;;
74371;SDS011;62885;51.374;6.170;2023-07-09T02:54:27;9.02;;;4.68;;
74371;SDS011;62885;51.374;6.170;2023-07-09T02:56:52;13.35;;;4.93;;
74371;SDS011;62885;51.374;6.170;2023-07-09T02:59:18;11.20;;;5.05;;
74371;SDS011;62885;51.374;6.170;2023-07-09T03:01:43;12.55;;;5.00;;
74371;SDS011;62885;51.374;6.170;2023-07-09T03:04:10;10.77;;;4.55;;
74371;SDS011;62885;51.374;6.170;2023-07-09T03:06:35;12.38;;;5.72;;
74371;SDS011;62885;51.374;6.170;2023-07-09T03:09:02;11.98;;;5.75;;
74371;SDS011;62885;51.374;6.170;2023-07-09T03:11:29;12.50;;;5.10;;
74371;SDS011;62885;51.374;6.170;2023-07-09T03:13:56;12.23;;;4.95;;
74371;SDS011;62885;51.374;6.170;2023-07-09T03:16:23;11.93;;;4.97;;
74371;SDS011;62885;51.374;6.170;2023-07-09T03:18:51;13.57;;;5.15;;
74371;SDS011;62885;51.374;6.170;2023-07-09T03:21:17;9.73;;;4.57;;
74371;SDS011;62885;51.374;6.170;2023-07-09T03:23:42;18.13;;;4.80;;
74371;SDS011;62885;51.374;6.170;2023-07-09T03:26:07;12.70;;;5.45;;
74371;SDS011;62885;51.374;6.170;2023-07-09T03:28:33;10.80;;;5.13;;
74371;SDS011;62885;51.374;6.170;2023-07-09T03:30:59;11.55;;;5.28;;
74371;SDS011;62885;51.374;6.170;2023-07-09T03:33:24;14.48;;;5.00;;
74371;SDS011;62885;51.374;6.170;2023-07-09T03:35:50;10.05;;;4.68;;
74371;SDS011;62885;51.374;6.170;2023-07-09T03:38:16;14.05;;;5.18;;
74371;SDS011;62885;51.374;6.170;2023-07-09T03:40:42;15.10;;;5.50;;
74371;SDS011;62885;51.374;6.170;2023-07-09T03:43:09;13.73;;;5.07;;
74371;SDS011;62885;51.374;6.170;2023-07-09T03:45:35;9.63;;;5.25;;
74371;SDS011;62885;51.374;6.170;2023-07-09T03:48:01;11.80;;;4.78;;
74371;SDS011;62885;51.374;6.170;2023-07-09T03:50:27;10.77;;;5.00;;
74371;SDS011;62885;51.374;6.170;2023-07-09T03:52:53;15.55;;;5.32;;
74371;SDS011;62885;51.374;6.170;2023-07-09T03:55:18;12.70;;;5.20;;
74371;SDS011;62885;51.374;6.170;2023-07-09T03:57:44;15.02;;;4.93;;
74371;SDS011;62885;51.374;6.170;2023-07-09T04:00:10;14.00;;;6.28;;
74371;SDS011;62885;51.374;6.170;2023-07-09T04:02:37;13.00;;;5.60;;
74371;SDS011;62885;51.374;6.170;2023-07-09T04:05:06;10.23;;;4.60;;
74371;SDS011;62885;51.374;6.170;2023-07-09T04:07:33;10.32;;;5.20;;
74371;SDS011;62885;51.374;6.170;2023-07-09T04:09:59;12.30;;;5.32;;
74371;SDS011;62885;51.374;6.170;2023-07-09T04:12:24;14.88;;;5.90;;
74371;SDS011;62885;51.374;6.170;2023-07-09T04:14:50;12.50;;;4.85;;
74371;SDS011;62885;51.374;6.170;2023-07-09T04:17:15;10.32;;;4.65;;
74371;SDS011;62885;51.374;6.170;2023-07-09T04:19:41;11.70;;;5.50;;
74371;SDS011;62885;51.374;6.170;2023-07-09T04:22:06;11.70;;;5.38;;
74371;SDS011;62885;51.374;6.170;2023-07-09T04:24:31;10.80;;;5.30;;
74371;SDS011;62885;51.374;6.170;2023-07-09T04:26:58;14.90;;;5.30;;
74371;SDS011;62885;51.374;6.170;2023-07-09T04:29:27;10.18;;;4.95;;
74371;SDS011;62885;51.374;6.170;2023-07-09T04:31:58;12.82;;;5.32;;
74371;SDS011;62885;51.374;6.170;2023-07-09T04:34:24;10.35;;;5.47;;
74371;SDS011;62885;51.374;6.170;2023-07-09T04:36:50;14.00;;;5.18;;
74371;SDS011;62885;51.374;6.170;2023-07-09T04:39:15;12.18;;;5.30;;
74371;SDS011;62885;51.374;6.170;2023-07-09T04:41:40;12.60;;;5.63;;
74371;SDS011;62885;51.374;6.170;2023-07-09T04:44:06;13.35;;;5.78;;
74371;SDS011;62885;51.374;6.170;2023-07-09T04:46:31;10.40;;;4.85;;
74371;SDS011;62885;51.374;6.170;2023-07-09T04:48:57;9.23;;;4.68;;
74371;SDS011;62885;51.374;6.170;2023-07-09T04:51:22;10.55;;;5.28;;
74371;SDS011;62885;51.374;6.170;2023-07-09T04:53:47;12.43;;;5.40;;
74371;SDS011;62885;51.374;6.170;2023-07-09T04:56:16;11.98;;;5.43;;
74371;SDS011;62885;51.374;6.170;2023-07-09T04:58:42;13.15;;;5.43;;
74371;SDS011;62885;51.374;6.170;2023-07-09T05:01:07;11.60;;;6.00;;
74371;SDS011;62885;51.374;6.170;2023-07-09T05:03:33;11.85;;;5.32;;
74371;SDS011;62885;51.374;6.170;2023-07-09T05:05:58;11.32;;;5.43;;
74371;SDS011;62885;51.374;6.170;2023-07-09T05:08:23;9.43;;;5.45;;
74371;SDS011;62885;51.374;6.170;2023-07-09T05:10:51;11.82;;;5.47;;
74371;SDS011;62885;51.374;6.170;2023-07-09T05:13:17;11.38;;;5.35;;
74371;SDS011;62885;51.374;6.170;2023-07-09T05:15:45;11.23;;;5.63;;
74371;SDS011;62885;51.374;6.170;2023-07-09T05:18:12;11.70;;;5.07;;
74371;SDS011;62885;51.374;6.170;2023-07-09T05:20:38;13.20;;;5.50;;
74371;SDS011;62885;51.374;6.170;2023-07-09T05:23:05;9.77;;;5.07;;
74371;SDS011;62885;51.374;6.170;2023-07-09T05:25:30;12.55;;;5.10;;
74371;SDS011;62885;51.374;6.170;2023-07-09T05:27:56;13.02;;;5.57;;
74371;SDS011;62885;51.374;6.170;2023-07-09T05:30:21;13.02;;;5.47;;
74371;SDS011;62885;51.374;6.170;2023-07-09T05:32:47;10.23;;;5.50;;
74371;SDS011;62885;51.374;6.170;2023-07-09T05:35:13;14.00;;;5.82;;
74371;SDS011;62885;51.374;6.170;2023-07-09T05:37:38;9.38;;;5.25;;
74371;SDS011;62885;51.374;6.170;2023-07-09T05:40:05;11.18;;;5.65;;
74371;SDS011;62885;51.374;6.170;2023-07-09T05:42:31;14.35;;;5.57;;
74371;SDS011;62885;51.374;6.170;2023-07-09T05:44:57;13.75;;;5.60;;
74371;SDS011;62885;51.374;6.170;2023-07-09T05:47:22;11.60;;;6.20;;
74371;SDS011;62885;51.374;6.170;2023-07-09T05:49:48;13.52;;;5.63;;
74371;SDS011;62885;51.374;6.170;2023-07-09T05:52:15;13.50;;;5.28;;
74371;SDS011;62885;51.374;6.170;2023-07-09T05:54:42;10.52;;;5.53;;
74371;SDS011;62885;51.374;6.170;2023-07-09T05:57:07;11.77;;;5.63;;
74371;SDS011;62885;51.374;6.170;2023-07-09T05:59:33;12.90;;;5.60;;
74371;SDS011;62885;51.374;6.170;2023-07-09T06:01:58;12.65;;;5.82;;
74371;SDS011;62885;51.374;6.170;2023-07-09T06:04:26;10.93;;;5.65;;
74371;SDS011;62885;51.374;6.170;2023-07-09T06:06:51;17.08;;;5.80;;
74371;SDS011;62885;51.374;6.170;2023-07-09T06:09:17;10.77;;;5.93;;
74371;SDS011;62885;51.374;6.170;2023-07-09T06:11:42;12.60;;;6.70;;
74371;SDS011;62885;51.374;6.170;2023-07-09T06:14:09;14.50;;;5.72;;
74371;SDS011;62885;51.374;6.170;2023-07-09T06:16:34;10.77;;;5.55;;
74371;SDS011;62885;51.374;6.170;2023-07-09T06:19:00;13.27;;;5.30;;
74371;SDS011;62885;51.374;6.170;2023-07-09T06:21:25;13.18;;;5.30;;
74371;SDS011;62885;51.374;6.170;2023-07-09T06:23:50;16.58;;;5.65;;
74371;SDS011;62885;51.374;6.170;2023-07-09T06:26:16;10.38;;;5.20;;
74371;SDS011;62885;51.374;6.170;2023-07-09T06:28:41;11.13;;;6.45;;
74371;SDS011;62885;51.374;6.170;2023-07-09T06:31:07;15.73;;;5.90;;
74371;SDS011;62885;51.374;6.170;2023-07-09T06:33:32;11.95;;;5.10;;
74371;SDS011;62885;51.374;6.170;2023-07-09T06:35:59;13.43;;;5.88;;
74371;SDS011;62885;51.374;6.170;2023-07-09T06:38:26;10.15;;;6.22;;
74371;SDS011;62885;51.374;6.170;2023-07-09T06:40:52;9.85;;;5.40;;
74371;SDS011;62885;51.374;6.170;2023-07-09T06:43:18;13.40;;;5.55;;
74371;SDS011;62885;51.374;6.170;2023-07-09T06:46:02;10.93;;;5.22;;
74371;SDS011;62885;51.374;6.170;2023-07-09T06:48:28;12.82;;;5.85;;
74371;SDS011;62885;51.374;6.170;2023-07-09T06:50:55;12.38;;;5.80;;
74371;SDS011;62885;51.374;6.170;2023-07-09T06:53:22;10.55;;;5.50;;
74371;SDS011;62885;51.374;6.170;2023-07-09T06:55:48;10.60;;;5.50;;
74371;SDS011;62885;51.374;6.170;2023-07-09T06:58:15;10.35;;;5.68;;
74371;SDS011;62885;51.374;6.170;2023-07-09T07:00:41;11.13;;;5.85;;
74371;SDS011;62885;51.374;6.170;2023-07-09T07:03:08;12.05;;;5.25;;
74371;SDS011;62885;51.374;6.170;2023-07-09T07:05:34;16.02;;;5.82;;
74371;SDS011;62885;51.374;6.170;2023-07-09T07:08:01;10.65;;;5.07;;
74371;SDS011;62885;51.374;6.170;2023-07-09T07:10:28;8.85;;;4.80;;
74371;SDS011;62885;51.374;6.170;2023-07-09T07:12:53;9.82;;;5.32;;
74371;SDS011;62885;51.374;6.170;2023-07-09T07:15:19;10.18;;;4.75;;
74371;SDS011;62885;51.374;6.170;2023-07-09T07:17:45;8.77;;;5.57;;
74371;SDS011;62885;51.374;6.170;2023-07-09T07:20:11;10.25;;;5.80;;
74371;SDS011;62885;51.374;6.170;2023-07-09T07:22:38;9.82;;;4.97;;
74371;SDS011;62885;51.374;6.170;2023-07-09T07:25:04;13.07;;;5.63;;
74371;SDS011;62885;51.374;6.170;2023-07-09T07:27:30;9.00;;;5.03;;
74371;SDS011;62885;51.374;6.170;2023-07-09T07:29:56;12.07;;;5.40;;
74371;SDS011;62885;51.374;6.170;2023-07-09T07:32:23;9.52;;;5.38;;
74371;SDS011;62885;51.374;6.170;2023-07-09T07:34:48;10.15;;;5.53;;
74371;SDS011;62885;51.374;6.170;2023-07-09T07:37:14;9.90;;;6.50;;
74371;SDS011;62885;51.374;6.170;2023-07-09T07:39:40;12.90;;;7.20;;
74371;SDS011;62885;51.374;6.170;2023-07-09T07:42:06;9.50;;;5.22;;
74371;SDS011;62885;51.374;6.170;2023-07-09T07:44:31;11.30;;;5.82;;
74371;SDS011;62885;51.374;6.170;2023-07-09T07:46:57;12.50;;;6.18;;
74371;SDS011;62885;51.374;6.170;2023-07-09T07:49:22;10.27;;;5.28;;
74371;SDS011;62885;51.374;6.170;2023-07-09T07:51:48;11.75;;;5.32;;
74371;SDS011;62885;51.374;6.170;2023-07-09T07:54:13;11.48;;;5.25;;
74371;SDS011;62885;51.374;6.170;2023-07-09T07:56:39;9.52;;;5.68;;
74371;SDS011;62885;51.374;6.170;2023-07-09T07:59:05;13.32;;;5.82;;
74371;SDS011;62885;51.374;6.170;2023-07-09T08:01:31;9.05;;;5.03;;
74371;SDS011;62885;51.374;6.170;2023-07-09T08:03:57;10.68;;;5.30;;
74371;SDS011;62885;51.374;6.170;2023-07-09T08:06:22;11.18;;;5.88;;
74371;SDS011;62885;51.374;6.170;2023-07-09T08:08:48;16.00;;;7.18;;
74371;SDS011;62885;51.374;6.170;2023-07-09T08:11:13;9.50;;;5.15;;
74371;SDS011;62885;51.374;6.170;2023-07-09T08:13:39;11.18;;;4.88;;
74371;SDS011;62885;51.374;6.170;2023-07-09T08:16:05;11.80;;;5.88;;
74371;SDS011;62885;51.374;6.170;2023-07-09T08:18:31;13.13;;;7.00;;
74371;SDS011;62885;51.374;6.170;2023-07-09T08:20:58;12.77;;;7.07;;
74371;SDS011;62885;51.374;6.170;2023-07-09T08:23:24;11.82;;;5.85;;
74371;SDS011;62885;51.374;6.170;2023-07-09T08:25:56;11.82;;;5.65;;
74371;SDS011;62885;51.374;6.170;2023-07-09T08:28:23;10.60;;;5.22;;
74371;SDS011;62885;51.374;6.170;2023-07-09T08:30:51;9.65;;;4.88;;
74371;SDS011;62885;51.374;6.170;2023-07-09T08:33:17;9.88;;;4.78;;
74371;SDS011;62885;51.374;6.170;2023-07-09T08:35:42;10.60;;;4.57;;
74371;SDS011;62885;51.374;6.170;2023-07-09T08:38:08;8.30;;;4.78;;
74371;SDS011;62885;51.374;6.170;2023-07-09T08:40:38;10.27;;;5.00;;
74371;SDS011;62885;51.374;6.170;2023-07-09T08:43:17;10.48;;;5.13;;
74371;SDS011;62885;51.374;6.170;2023-07-09T08:48:36;9.90;;;5.17;;
74371;SDS011;62885;51.374;6.170;2023-07-09T08:51:18;10.35;;;5.13;;
74371;SDS011;62885;51.374;6.170;2023-07-09T08:53:54;10.30;;;4.95;;
74371;SDS011;62885;51.374;6.170;2023-07-09T08:56:22;9.32;;;5.25;;
74371;SDS011;62885;51.374;6.170;2023-07-09T08:58:49;8.95;;;4.65;;
74371;SDS011;62885;51.374;6.170;2023-07-09T09:01:20;11.75;;;4.95;;
74371;SDS011;62885;51.374;6.170;2023-07-09T09:03:50;11.52;;;6.22;;
74371;SDS011;62885;51.374;6.170;2023-07-09T09:06:19;8.23;;;5.35;;
74371;SDS011;62885;51.374;6.170;2023-07-09T09:11:34;11.40;;;5.07;;
74371;SDS011;62885;51.374;6.170;2023-07-09T09:16:57;10.73;;;4.72;;
74371;SDS011;62885;51.374;6.170;2023-07-09T09:19:31;11.43;;;4.60;;
74371;SDS011;62885;51.374;6.170;2023-07-09T09:22:07;10.15;;;5.25;;
74371;SDS011;62885;51.374;6.170;2023-07-09T09:24:35;12.15;;;5.40;;
74371;SDS011;62885;51.374;6.170;2023-07-09T09:27:04;10.30;;;5.07;;
74371;SDS011;62885;51.374;6.170;2023-07-09T09:29:30;8.93;;;4.88;;
74371;SDS011;62885;51.374;6.170;2023-07-09T09:31:56;11.10;;;4.55;;
74371;SDS011;62885;51.374;6.170;2023-07-09T09:34:28;8.93;;;4.90;;
74371;SDS011;62885;51.374;6.170;2023-07-09T09:36:55;9.25;;;4.35;;
74371;SDS011;62885;51.374;6.170;2023-07-09T09:39:23;10.55;;;5.22;;
74371;SDS011;62885;51.374;6.170;2023-07-09T09:41:51;10.25;;;4.72;;
74371;SDS011;62885;51.374;6.170;2023-07-09T09:44:20;8.88;;;4.25;;
74371;SDS011;62885;51.374;6.170;2023-07-09T09:46:52;7.88;;;4.43;;
74371;SDS011;62885;51.374;6.170;2023-07-09T09:49:20;8.63;;;4.50;;
74371;SDS011;62885;51.374;6.170;2023-07-09T09:51:46;11.07;;;4.75;;
74371;SDS011;62885;51.374;6.170;2023-07-09T09:54:20;10.05;;;4.78;;
74371;SDS011;62885;51.374;6.170;2023-07-09T09:56:50;10.32;;;5.00;;
74371;SDS011;62885;51.374;6.170;2023-07-09T09:59:23;9.95;;;4.55;;
74371;SDS011;62885;51.374;6.170;2023-07-09T10:02:02;10.23;;;4.13;;
74371;SDS011;62885;51.374;6.170;2023-07-09T10:04:48;8.48;;;4.13;;
74371;SDS011;62885;51.374;6.170;2023-07-09T10:07:58;9.52;;;4.00;;
74371;SDS011;62885;51.374;6.170;2023-07-09T10:10:15;7.13;;;4.15;;
74371;SDS011;62885;51.374;6.170;2023-07-09T10:12:52;8.02;;;4.75;;
74371;SDS011;62885;51.374;6.170;2023-07-09T10:17:57;11.50;;;3.92;;
74371;SDS011;62885;51.374;6.170;2023-07-09T10:31:46;6.68;;;4.00;;
74371;SDS011;62885;51.374;6.170;2023-07-09T10:36:58;7.47;;;3.47;;
74371;SDS011;62885;51.374;6.170;2023-07-09T10:39:40;8.25;;;3.88;;
74371;SDS011;62885;51.374;6.170;2023-07-09T10:42:18;7.90;;;3.50;;
74371;SDS011;62885;51.374;6.170;2023-07-09T10:44:52;8.98;;;3.80;;
74371;SDS011;62885;51.374;6.170;2023-07-09T10:47:34;7.75;;;3.78;;
74371;SDS011;62885;51.374;6.170;2023-07-09T10:50:03;8.27;;;3.97;;
74371;SDS011;62885;51.374;6.170;2023-07-09T10:52:36;9.13;;;4.45;;
74371;SDS011;62885;51.374;6.170;2023-07-09T10:55:05;8.55;;;3.78;;
74371;SDS011;62885;51.374;6.170;2023-07-09T11:00:34;7.95;;;4.05;;
74371;SDS011;62885;51.374;6.170;2023-07-09T11:03:11;9.85;;;3.88;;
74371;SDS011;62885;51.374;6.170;2023-07-09T11:05:42;8.40;;;3.90;;
74371;SDS011;62885;51.374;6.170;2023-07-09T11:08:17;6.95;;;3.28;;
74371;SDS011;62885;51.374;6.170;2023-07-09T11:10:49;9.18;;;3.92;;
74371;SDS011;62885;51.374;6.170;2023-07-09T11:13:21;8.88;;;3.53;;
74371;SDS011;62885;51.374;6.170;2023-07-09T11:15:57;11.27;;;4.07;;
74371;SDS011;62885;51.374;6.170;2023-07-09T11:18:24;9.45;;;4.03;;
74371;SDS011;62885;51.374;6.170;2023-07-09T11:21:12;8.50;;;3.78;;
74371;SDS011;62885;51.374;6.170;2023-07-09T11:28:50;7.57;;;3.70;;
74371;SDS011;62885;51.374;6.170;2023-07-09T11:31:22;7.97;;;4.22;;
74371;SDS011;62885;51.374;6.170;2023-07-09T11:33:59;8.75;;;3.67;;
74371;SDS011;62885;51.374;6.170;2023-07-09T11:36:45;7.63;;;3.20;;
74371;SDS011;62885;51.374;6.170;2023-07-09T11:39:21;7.18;;;3.28;;
74371;SDS011;62885;51.374;6.170;2023-07-09T11:41:54;8.30;;;3.60;;
74371;SDS011;62885;51.374;6.170;2023-07-09T11:44:20;8.50;;;3.90;;
74371;SDS011;62885;51.374;6.170;2023-07-09T11:49:39;7.15;;;3.70;;
74371;SDS011;62885;51.374;6.170;2023-07-09T11:52:13;6.57;;;4.10;;
74371;SDS011;62885;51.374;6.170;2023-07-09T11:54:43;6.63;;;3.55;;
74371;SDS011;62885;51.374;6.170;2023-07-09T11:57:12;8.25;;;4.20;;
74371;SDS011;62885;51.374;6.170;2023-07-09T11:59:41;10.95;;;4.15;;
74371;SDS011;62885;51.374;6.170;2023-07-09T12:02:15;9.40;;;4.88;;
74371;SDS011;62885;51.374;6.170;2023-07-09T12:04:43;8.68;;;3.70;;
74371;SDS011;62885;51.374;6.170;2023-07-09T12:07:12;10.95;;;4.35;;
74371;SDS011;62885;51.374;6.170;2023-07-09T12:09:41;8.38;;;3.88;;
74371;SDS011;62885;51.374;6.170;2023-07-09T12:12:23;8.57;;;4.00;;
74371;SDS011;62885;51.374;6.170;2023-07-09T12:14:50;8.95;;;3.97;;
74371;SDS011;62885;51.374;6.170;2023-07-09T12:17:16;8.40;;;4.22;;
74371;SDS011;62885;51.374;6.170;2023-07-09T12:19:42;6.95;;;3.90;;
74371;SDS011;62885;51.374;6.170;2023-07-09T12:22:15;7.47;;;3.53;;
74371;SDS011;62885;51.374;6.170;2023-07-09T12:24:44;8.05;;;4.20;;
74371;SDS011;62885;51.374;6.170;2023-07-09T12:27:23;8.55;;;4.85;;
74371;SDS011;62885;51.374;6.170;2023-07-09T12:29:51;9.50;;;3.97;;
74371;SDS011;62885;51.374;6.170;2023-07-09T12:32:18;7.40;;;3.35;;
74371;SDS011;62885;51.374;6.170;2023-07-09T12:34:49;7.95;;;3.88;;
74371;SDS011;62885;51.374;6.170;2023-07-09T12:37:15;7.82;;;3.47;;
74371;SDS011;62885;51.374;6.170;2023-07-09T12:39:41;8.55;;;3.67;;
74371;SDS011;62885;51.374;6.170;2023-07-09T12:42:14;11.63;;;4.53;;
74371;SDS011;62885;51.374;6.170;2023-07-09T12:44:43;9.43;;;3.72;;
74371;SDS011;62885;51.374;6.170;2023-07-09T12:47:13;7.88;;;3.67;;
74371;SDS011;62885;51.374;6.170;2023-07-09T12:49:41;8.50;;;4.30;;
74371;SDS011;62885;51.374;6.170;2023-07-09T12:52:13;11.27;;;4.10;;
74371;SDS011;62885;51.374;6.170;2023-07-09T12:54:51;10.77;;;4.63;;
74371;SDS011;62885;51.374;6.170;2023-07-09T12:57:20;7.90;;;3.88;;
74371;SDS011;62885;51.374;6.170;2023-07-09T12:59:46;6.55;;;3.45;;
74371;SDS011;62885;51.374;6.170;2023-07-09T13:02:16;7.30;;;3.55;;
74371;SDS011;62885;51.374;6.170;2023-07-09T13:04:42;7.30;;;3.45;;
74371;SDS011;62885;51.374;6.170;2023-07-09T13:09:48;9.13;;;3.58;;
74371;SDS011;62885;51.374;6.170;2023-07-09T13:12:15;9.27;;;3.90;;
74371;SDS011;62885;51.374;6.170;2023-07-09T13:14:40;7.30;;;2.72;;
74371;SDS011;62885;51.374;6.170;2023-07-09T13:17:07;8.50;;;3.63;;
74371;SDS011;62885;51.374;6.170;2023-07-09T13:19:34;9.55;;;3.40;;
74371;SDS011;62885;51.374;6.170;2023-07-09T13:22:00;6.68;;;3.45;;
74371;SDS011;62885;51.374;6.170;2023-07-09T13:24:28;7.90;;;3.75;;
74371;SDS011;62885;51.374;6.170;2023-07-09T13:26:54;8.80;;;3.65;;
74371;SDS011;62885;51.374;6.170;2023-07-09T13:29:23;7.43;;;3.38;;
74371;SDS011;62885;51.374;6.170;2023-07-09T13:31:48;10.13;;;3.80;;
74371;SDS011;62885;51.374;6.170;2023-07-09T13:34:21;17.10;;;3.78;;
74371;SDS011;62885;51.374;6.170;2023-07-09T13:36:49;6.55;;;3.58;;
74371;SDS011;62885;51.374;6.170;2023-07-09T13:39:16;6.97;;;3.90;;
74371;SDS011;62885;51.374;6.170;2023-07-09T13:41:43;7.15;;;3.58;;
74371;SDS011;62885;51.374;6.170;2023-07-09T13:44:14;7.55;;;3.75;;
74371;SDS011;62885;51.374;6.170;2023-07-09T13:46:41;8.95;;;3.90;;
74371;SDS011;62885;51.374;6.170;2023-07-09T13:49:08;8.43;;;3.88;;
74371;SDS011;62885;51.374;6.170;2023-07-09T13:51:39;6.30;;;3.42;;
74371;SDS011;62885;51.374;6.170;2023-07-09T13:54:12;7.28;;;3.83;;
74371;SDS011;62885;51.374;6.170;2023-07-09T13:56:41;9.23;;;3.92;;
74371;SDS011;62885;51.374;6.170;2023-07-09T13:59:12;9.75;;;4.25;;
74371;SDS011;62885;51.374;6.170;2023-07-09T14:01:39;11.05;;;4.22;;
74371;SDS011;62885;51.374;6.170;2023-07-09T14:04:04;12.30;;;4.35;;
74371;SDS011;62885;51.374;6.170;2023-07-09T14:06:29;10.32;;;4.15;;
74371;SDS011;62885;51.374;6.170;2023-07-09T14:08:55;10.45;;;4.57;;
74371;SDS011;62885;51.374;6.170;2023-07-09T14:11:20;10.45;;;4.47;;
74371;SDS011;62885;51.374;6.170;2023-07-09T14:13:46;8.27;;;3.47;;
74371;SDS011;62885;51.374;6.170;2023-07-09T14:16:12;8.13;;;3.78;;
74371;SDS011;62885;51.374;6.170;2023-07-09T14:18:40;8.52;;;3.10;;
74371;SDS011;62885;51.374;6.170;2023-07-09T14:21:12;6.63;;;2.30;;
74371;SDS011;62885;51.374;6.170;2023-07-09T14:23:43;5.88;;;2.22;;
74371;SDS011;62885;51.374;6.170;2023-07-09T14:26:09;6.13;;;2.70;;
74371;SDS011;62885;51.374;6.170;2023-07-09T14:28:35;6.78;;;2.35;;
74371;SDS011;62885;51.374;6.170;2023-07-09T14:31:04;5.30;;;2.80;;
74371;SDS011;62885;51.374;6.170;2023-07-09T14:33:38;8.73;;;3.35;;
74371;SDS011;62885;51.374;6.170;2023-07-09T14:36:03;8.35;;;4.03;;
74371;SDS011;62885;51.374;6.170;2023-07-09T14:38:29;11.68;;;4.57;;
74371;SDS011;62885;51.374;6.170;2023-07-09T14:40:55;9.35;;;4.72;;
74371;SDS011;62885;51.374;6.170;2023-07-09T14:43:23;10.82;;;6.05;;
74371;SDS011;62885;51.374;6.170;2023-07-09T14:45:49;17.08;;;7.80;;
74371;SDS011;62885;51.374;6.170;2023-07-09T14:48:16;14.35;;;9.27;;
74371;SDS011;62885;51.374;6.170;2023-07-09T14:50:43;14.77;;;9.05;;
74371;SDS011;62885;51.374;6.170;2023-07-09T14:53:25;12.63;;;9.68;;
74371;SDS011;62885;51.374;6.170;2023-07-09T14:55:52;16.65;;;11.10;;
74371;SDS011;62885;51.374;6.170;2023-07-09T14:58:19;14.45;;;9.95;;
74371;SDS011;62885;51.374;6.170;2023-07-09T15:00:46;16.20;;;10.80;;
74371;SDS011;62885;51.374;6.170;2023-07-09T15:03:18;15.10;;;10.98;;
74371;SDS011;62885;51.374;6.170;2023-07-09T15:08:15;16.52;;;10.35;;
74371;SDS011;62885;51.374;6.170;2023-07-09T15:10:47;11.35;;;8.13;;
74371;SDS011;62885;51.374;6.170;2023-07-09T15:13:15;12.75;;;7.20;;
74371;SDS011;62885;51.374;6.170;2023-07-09T15:15:42;10.82;;;6.88;;
74371;SDS011;62885;51.374;6.170;2023-07-09T15:18:09;12.63;;;6.45;;
74371;SDS011;62885;51.374;6.170;2023-07-09T15:20:36;12.35;;;6.57;;
74371;SDS011;62885;51.374;6.170;2023-07-09T15:23:02;10.40;;;6.95;;
74371;SDS011;62885;51.374;6.170;2023-07-09T15:25:28;13.32;;;6.80;;
74371;SDS011;62885;51.374;6.170;2023-07-09T15:27:55;11.15;;;7.38;;